Time;durP1;ratioP1;P1;durP2;ratioP2;P2;SDS_P1;SDS_P2;PMS_P1;PMS_P2;Temp;Humidity;BMP_temperature;BMP_pressure;BME280_temperature;BME280_humidity;BME280_pressure;Samples;Min_cycle;Max_cycle;Signal;HPM_P1;HPM_P2
2021/09/25 00:01:12;;;;;;;3.15;2.00;;;;;;;24.42;37.99;95201.72;5048204;28;20033;-76
2021/09/25 00:03:38;;;;;;;3.63;2.00;;;;;;;24.43;37.68;95192.28;5066222;28;20051;-76
2021/09/25 00:06:03;;;;;;;2.60;1.73;;;;;;;24.43;37.86;95208.66;5066152;28;20135;-76
2021/09/25 00:08:29;;;;;;;3.05;1.70;;;;;;;24.42;37.68;95201.72;5066453;28;20410;-76
2021/09/25 00:10:54;;;;;;;2.95;2.03;;;;;;;24.43;37.44;95208.66;5048316;28;20043;-76
2021/09/25 00:13:19;;;;;;;2.83;1.77;;;;;;;24.41;37.97;95200.97;5048251;28;20094;-76
2021/09/25 00:15:45;;;;;;;3.38;1.70;;;;;;;24.37;37.87;95199.78;5066182;28;20017;-76
2021/09/25 00:18:10;;;;;;;3.47;2.17;;;;;;;24.36;38.10;95198.28;5065628;28;20021;-75
2021/09/25 00:20:36;;;;;;;2.80;1.65;;;;;;;24.38;37.79;95206.72;5066082;28;20028;-75
2021/09/25 00:23:02;;;;;;;2.75;1.98;;;;;;;24.36;37.56;95203.75;5066001;28;20024;-77
2021/09/25 00:25:27;;;;;;;3.13;1.67;;;;;;;24.34;37.73;95200.81;5047502;28;20024;-76
2021/09/25 00:27:53;;;;;;;3.33;2.00;;;;;;;24.33;37.50;95199.31;5065276;28;20055;-75
2021/09/25 00:30:18;;;;;;;3.00;1.90;;;;;;;24.34;38.19;95200.81;5066013;28;20032;-77
2021/09/25 00:32:43;;;;;;;3.13;1.70;;;;;;;24.34;37.33;95195.34;5065179;28;20505;-76
2021/09/25 00:35:09;;;;;;;2.58;1.75;;;;;;;24.33;37.61;95188.41;5065622;28;20555;-76
2021/09/25 00:37:35;;;;;;;2.88;1.80;;;;;;;24.31;37.99;95190.88;5065577;28;20032;-76
2021/09/25 00:40:00;;;;;;;3.13;1.70;;;;;;;24.31;37.97;95190.88;5065919;28;20032;-76
2021/09/25 00:42:26;;;;;;;2.95;1.80;;;;;;;24.30;37.83;95189.38;5065999;28;20025;-76
2021/09/25 00:44:51;;;;;;;3.20;1.80;;;;;;;24.31;38.11;95190.88;5066054;28;20078;-76
2021/09/25 00:47:17;;;;;;;2.65;1.80;;;;;;;24.28;38.30;95178.25;5065770;28;20078;-76
2021/09/25 00:49:42;;;;;;;3.33;1.98;;;;;;;24.28;37.61;95185.72;5065833;28;20029;-76
2021/09/25 00:52:08;;;;;;;3.45;1.90;;;;;;;24.29;37.87;95176.25;5048050;28;20039;-76
2021/09/25 00:54:33;;;;;;;2.67;1.90;;;;;;;24.29;37.80;95193.38;5066114;28;20032;-76
2021/09/25 00:56:59;;;;;;;3.20;1.90;;;;;;;24.29;37.79;95198.84;5081255;28;20043;-77
2021/09/25 00:59:24;;;;;;;3.55;2.00;;;;;;;24.27;38.21;95195.13;5047719;28;20054;-75
2021/09/25 01:01:50;;;;;;;3.25;2.13;;;;;;;24.26;38.25;95194.41;5065761;28;20486;-77
2021/09/25 01:04:16;;;;;;;3.00;1.67;;;;;;;24.26;37.79;95194.41;5080911;28;20545;-75
2021/09/25 01:06:41;;;;;;;4.93;2.03;;;;;;;24.24;37.83;95202.34;5065505;28;20428;-75
2021/09/25 01:09:07;;;;;;;3.40;1.85;;;;;;;24.26;37.79;95199.88;5065442;28;20033;-75
2021/09/25 01:11:33;;;;;;;2.72;1.70;;;;;;;24.24;38.08;95191.44;5047365;28;20020;-75
2021/09/25 01:13:58;;;;;;;2.67;1.98;;;;;;;24.25;38.43;95192.91;5065474;28;20032;-75
2021/09/25 01:16:24;;;;;;;3.50;1.90;;;;;;;24.25;38.44;95184.00;5065461;28;20033;-76
2021/09/25 01:18:49;;;;;;;3.95;2.67;;;;;;;24.23;37.87;95200.88;5065530;28;20028;-75
2021/09/25 01:21:15;;;;;;;3.05;1.55;;;;;;;24.24;38.44;95207.81;5065603;28;20094;-75
2021/09/25 01:23:40;;;;;;;2.70;1.98;;;;;;;24.21;38.36;95214.28;5065255;28;20028;-76
2021/09/25 01:26:06;;;;;;;3.08;1.73;;;;;;;24.21;38.00;95208.09;5065202;28;20044;-75
2021/09/25 01:28:32;;;;;;;2.72;1.95;;;;;;;24.22;38.04;95215.78;5047240;28;20402;-76
2021/09/25 01:30:58;;;;;;;2.45;1.75;;;;;;;24.22;37.84;95204.84;5047370;28;20032;-77
2021/09/25 01:33:39;;;;;;;2.03;1.67;;;;;;;24.21;37.87;95208.09;5065428;28;20023;-77
2021/09/25 01:36:05;;;;;;;3.92;1.90;;;;;;;24.21;38.15;95214.28;5065268;28;20032;-75
2021/09/25 01:38:31;;;;;;;2.95;1.90;;;;;;;24.22;38.05;95217.78;5065175;28;20737;-75
2021/09/25 01:40:57;;;;;;;2.75;1.70;;;;;;;24.21;38.02;95225.19;5065461;28;20031;-75
2021/09/25 01:43:22;;;;;;;3.55;1.73;;;;;;;24.22;37.93;95223.97;5066296;28;20052;-75
2021/09/25 01:45:47;;;;;;;3.08;1.90;;;;;;;24.18;38.52;95226.22;5069202;28;20040;-75
2021/09/25 01:48:13;;;;;;;2.40;1.70;;;;;;;24.19;38.47;95227.72;5068662;28;20522;-75
2021/09/25 01:50:39;;;;;;;3.45;2.08;;;;;;;24.19;38.06;95226.97;5069004;28;21444;-75
2021/09/25 01:53:05;;;;;;;2.75;1.65;;;;;;;24.15;38.21;95227.22;5051305;28;20063;-75
2021/09/25 01:55:30;;;;;;;2.92;1.90;;;;;;;24.18;38.08;95226.22;5069041;28;20028;-77
2021/09/25 01:57:56;;;;;;;2.45;1.83;;;;;;;24.17;38.02;95230.22;5068335;28;20028;-76
2021/09/25 02:00:21;;;;;;;2.47;1.80;;;;;;;24.16;38.73;95228.72;5068540;28;20039;-77
2021/09/25 02:02:47;;;;;;;3.72;1.58;;;;;;;24.17;38.08;95224.75;5068545;28;20024;-75
2021/09/25 02:05:15;;;;;;;3.20;2.08;;;;;;;24.14;38.85;95225.78;5068426;28;20067;-75
2021/09/25 02:07:41;;;;;;;2.17;1.50;;;;;;;24.13;38.24;95227.00;5068685;28;20031;-75
2021/09/25 02:10:06;;;;;;;2.67;1.63;;;;;;;24.14;38.47;95225.78;5068704;28;20021;-75
2021/09/25 02:12:32;;;;;;;3.72;1.80;;;;;;;24.11;38.52;95215.88;5068444;28;20027;-75
2021/09/25 02:14:57;;;;;;;2.78;1.90;;;;;;;24.13;38.49;95235.19;5084222;28;20024;-75
2021/09/25 02:17:23;;;;;;;2.95;1.65;;;;;;;24.10;38.35;95236.22;5068309;28;20028;-75
2021/09/25 02:19:49;;;;;;;3.08;2.03;;;;;;;24.10;38.55;95230.75;5068337;28;20426;-76
2021/09/25 02:22:14;;;;;;;2.92;1.80;;;;;;;24.11;38.53;95226.78;5067222;28;20534;-76
2021/09/25 02:24:40;;;;;;;3.13;1.60;;;;;;;24.10;38.25;95230.75;5068075;28;20024;-75
2021/09/25 02:27:05;;;;;;;2.60;1.90;;;;;;;24.09;38.82;95229.28;5068409;28;20066;-77
2021/09/25 02:29:31;;;;;;;2.30;1.52;;;;;;;24.09;38.73;95229.28;5068339;28;20539;-76
2021/09/25 02:31:57;;;;;;;2.50;1.88;;;;;;;24.11;38.69;95237.72;5068484;28;20028;-76
2021/09/25 02:34:22;;;;;;;2.67;1.58;;;;;;;24.11;38.79;95237.72;5068438;28;20023;-76
2021/09/25 02:36:47;;;;;;;3.17;1.95;;;;;;;24.09;38.48;95234.72;5067555;28;20029;-76
2021/09/25 02:39:13;;;;;;;3.33;2.03;;;;;;;24.08;38.63;95227.81;5067111;28;20024;-76
2021/09/25 02:41:38;;;;;;;2.97;1.80;;;;;;;24.06;38.76;95224.81;5067827;28;20120;-77
2021/09/25 02:44:04;;;;;;;3.08;1.92;;;;;;;24.06;38.64;95240.47;5049879;28;20072;-76
2021/09/25 02:46:29;;;;;;;2.63;1.75;;;;;;;24.08;38.50;95244.19;5049991;28;20029;-76
2021/09/25 02:48:55;;;;;;;4.00;2.10;;;;;;;24.08;38.48;95255.09;5067720;28;20031;-76
2021/09/25 02:51:20;;;;;;;3.00;1.90;;;;;;;24.08;38.79;95255.09;5067751;28;20031;-76
2021/09/25 02:53:46;;;;;;;2.42;1.75;;;;;;;24.10;38.54;95258.03;5067637;28;20402;-76
2021/09/25 02:56:11;;;;;;;2.95;2.00;;;;;;;24.08;39.01;95257.81;5066660;28;20025;-76
2021/09/25 02:58:37;;;;;;;3.20;1.88;;;;;;;24.06;38.84;95262.28;5049733;28;20674;-76
2021/09/25 03:01:02;;;;;;;2.83;1.98;;;;;;;24.06;38.47;95265.75;5067525;28;20020;-76
2021/09/25 03:03:28;;;;;;;3.40;2.13;;;;;;;24.03;38.76;95264.03;5067358;28;20050;-76
2021/09/25 03:05:53;;;;;;;3.00;1.75;;;;;;;24.04;38.75;95276.44;5067419;28;20118;-77
2021/09/25 03:08:19;;;;;;;2.67;1.70;;;;;;;24.04;38.21;95275.72;5049571;28;20024;-76
2021/09/25 03:10:44;;;;;;;2.67;2.00;;;;;;;24.04;38.51;95276.44;5067266;28;20031;-77
2021/09/25 03:13:10;;;;;;;2.92;1.60;;;;;;;24.03;38.51;95280.41;5082829;28;20032;-76
2021/09/25 03:15:35;;;;;;;3.50;1.85;;;;;;;24.04;38.79;95275.72;5067550;28;20043;-76
2021/09/25 03:18:01;;;;;;;2.85;1.77;;;;;;;24.02;38.69;95289.84;5066847;28;20461;-74
2021/09/25 03:20:26;;;;;;;3.15;2.10;;;;;;;24.01;38.51;95288.38;5066770;28;20505;-76
2021/09/25 03:22:52;;;;;;;3.55;1.73;;;;;;;24.00;39.04;95292.34;5067203;28;20040;-75
2021/09/25 03:25:17;;;;;;;2.95;1.95;;;;;;;24.00;38.68;95297.78;5066745;28;20090;-75
2021/09/25 03:27:43;;;;;;;3.47;2.00;;;;;;;23.99;38.95;95290.88;5066998;28;20479;-75
2021/09/25 03:30:09;;;;;;;3.10;2.05;;;;;;;23.98;38.80;95300.28;5067141;28;20024;-74
2021/09/25 03:32:35;;;;;;;3.22;1.80;;;;;;;23.99;38.75;95301.78;5067064;28;20108;-77
2021/09/25 03:35:00;;;;;;;2.97;1.80;;;;;;;24.00;38.61;95308.69;5048998;28;20025;-77
2021/09/25 03:37:26;;;;;;;3.15;2.15;;;;;;;23.97;38.93;95304.25;5048424;28;20028;-76
2021/09/25 03:39:51;;;;;;;3.22;1.80;;;;;;;23.98;39.27;95305.75;5066751;28;20127;-75
2021/09/25 03:42:17;;;;;;;4.03;1.73;;;;;;;23.98;39.03;95311.22;5048835;28;20483;-76
2021/09/25 03:44:43;;;;;;;3.45;1.85;;;;;;;23.97;38.68;95312.44;5067095;28;20028;-77
2021/09/25 03:47:08;;;;;;;2.92;1.90;;;;;;;23.97;38.51;95309.72;5066884;28;20420;-76
2021/09/25 03:49:34;;;;;;;3.30;2.00;;;;;;;23.95;39.06;95312.22;5066822;28;20032;-76
2021/09/25 03:51:59;;;;;;;2.60;1.80;;;;;;;23.96;39.00;95310.97;5066322;28;20573;-76
2021/09/25 03:54:25;;;;;;;3.65;1.98;;;;;;;23.96;38.90;95319.16;5066841;28;20032;-76
2021/09/25 03:56:50;;;;;;;3.47;1.85;;;;;;;23.96;38.99;95313.72;5047967;28;20036;-75
2021/09/25 03:59:16;;;;;;;2.67;1.92;;;;;;;23.94;38.70;95321.63;5066411;28;20036;-77
2021/09/25 04:01:41;;;;;;;2.60;1.70;;;;;;;23.95;39.09;95327.84;5048585;28;20032;-76
2021/09/25 04:04:06;;;;;;;3.60;1.85;;;;;;;23.95;38.74;95328.59;5044389;28;20028;-76
2021/09/25 04:06:33;;;;;;;2.67;1.90;;;;;;;23.93;39.03;95331.09;5028169;28;20037;-77
2021/09/25 04:08:59;;;;;;;2.65;1.90;;;;;;;23.93;39.17;95328.34;5046299;28;20479;-76
2021/09/25 04:11:24;;;;;;;3.17;1.70;;;;;;;23.93;39.01;95336.53;5056595;28;20044;-77
2021/09/25 04:13:50;;;;;;;3.40;1.98;;;;;;;23.90;38.85;95340.28;5066115;28;20033;-76
2021/09/25 04:16:15;;;;;;;3.90;1.75;;;;;;;23.93;39.12;95347.44;5065948;28;20035;-77
2021/09/25 04:18:41;;;;;;;3.00;1.75;;;;;;;23.94;39.08;95342.72;5065204;28;20028;-75
2021/09/25 04:21:06;;;;;;;3.17;1.90;;;;;;;23.93;39.12;95352.91;5066344;28;20028;-76
2021/09/25 04:23:32;;;;;;;3.03;2.00;;;;;;;23.94;39.81;95348.19;5065657;28;20021;-76
2021/09/25 04:25:57;;;;;;;3.97;1.83;;;;;;;23.94;39.59;95365.28;5081748;28;20024;-75
2021/09/25 04:28:23;;;;;;;3.17;1.92;;;;;;;24.01;39.40;95364.75;5071754;28;20031;-78
2021/09/25 04:30:50;;;;;;;3.60;2.30;;;;;;;24.04;39.54;95374.66;5062547;28;20227;-78
2021/09/25 04:33:15;;;;;;;6.10;2.10;;;;;;;24.05;39.46;95376.16;5080662;28;20020;-78
2021/09/25 04:35:40;;;;;;;2.67;1.92;;;;;;;24.05;39.33;95369.94;5062160;28;20027;-82
2021/09/25 04:38:06;;;;;;;4.30;2.17;;;;;;;24.05;39.10;95365.25;5082878;28;20020;-75
2021/09/25 04:40:31;;;;;;;3.25;2.00;;;;;;;24.09;39.09;95365.69;5081080;28;20021;-76
2021/09/25 04:42:58;;;;;;;3.47;2.15;;;;;;;24.09;39.45;95371.16;5064717;28;20020;-77
2021/09/25 04:45:23;;;;;;;3.22;2.10;;;;;;;24.13;39.02;95393.47;5081743;28;20102;-78
2021/09/25 04:47:50;;;;;;;3.53;1.98;;;;;;;24.17;39.17;95393.94;5097591;28;20084;-77
2021/09/25 04:50:16;;;;;;;4.82;2.13;;;;;;;24.26;38.50;95380.00;5089009;28;20033;-77
2021/09/25 04:52:42;;;;;;;3.45;2.20;;;;;;;24.30;38.75;95385.91;5076286;28;20528;-73
2021/09/25 04:55:08;;;;;;;3.70;2.15;;;;;;;24.38;38.59;95381.44;5083798;28;20032;-75
2021/09/25 04:57:33;;;;;;;5.38;2.58;;;;;;;24.46;38.12;95393.28;5082471;28;20112;-73
2021/09/25 04:59:58;;;;;;;3.97;2.50;;;;;;;24.53;38.43;95392.75;5082661;28;20697;-75
2021/09/25 05:02:24;;;;;;;2.88;2.35;;;;;;;24.61;37.79;95388.94;5082599;28;20541;-75
2021/09/25 05:04:50;;;;;;;3.15;2.22;;;;;;;24.65;38.00;95389.41;5080252;28;20044;-74
2021/09/25 05:07:15;;;;;;;3.45;2.30;;;;;;;24.77;37.40;95390.06;5085351;28;20120;-74
2021/09/25 05:09:41;;;;;;;4.45;2.47;;;;;;;24.83;37.69;95389.50;5078583;28;20055;-75
2021/09/25 05:12:06;;;;;;;4.10;2.38;;;;;;;24.92;37.04;95386.47;5083835;28;20023;-76
2021/09/25 05:14:33;;;;;;;3.67;2.33;;;;;;;24.95;37.39;95396.38;5082637;28;20088;-74
2021/09/25 05:16:59;;;;;;;4.93;2.63;;;;;;;25.05;36.80;95389.34;5081659;28;20499;-73
2021/09/25 05:19:24;;;;;;;4.65;2.13;;;;;;;25.15;36.75;95398.69;5076930;28;20090;-74
2021/09/25 05:21:50;;;;;;;4.55;2.38;;;;;;;25.18;37.04;95414.06;5068391;28;20039;-73
2021/09/25 05:24:15;;;;;;;2.88;2.05;;;;;;;25.23;36.94;95410.56;5068941;28;20044;-73
2021/09/25 05:26:41;;;;;;;3.33;2.20;;;;;;;25.31;36.22;95402.53;5068524;28;20037;-74
2021/09/25 05:29:07;;;;;;;3.53;2.50;;;;;;;25.33;36.47;95408.94;5076912;28;20112;-78
2021/09/25 05:31:33;;;;;;;3.33;2.20;;;;;;;25.34;36.34;95415.91;5084730;28;20526;-78
2021/09/25 05:33:58;;;;;;;4.45;2.65;;;;;;;25.36;36.43;95418.84;5070072;28;20113;-72
2021/09/25 05:36:24;;;;;;;4.25;2.33;;;;;;;25.44;36.37;95425.22;5084953;28;20031;-75
2021/09/25 05:38:50;;;;;;;6.05;2.72;;;;;;;25.52;36.48;95421.44;5033666;28;20111;-76
2021/09/25 05:41:15;;;;;;;5.97;2.67;;;;;;;25.57;36.48;95433.56;5075731;28;20050;-81
2021/09/25 05:43:41;;;;;;;7.05;2.55;;;;;;;25.66;36.47;95422.31;5070386;28;20025;-78
2021/09/25 05:46:06;;;;;;;2.95;2.33;;;;;;;25.69;35.91;95440.44;5054941;28;20028;-73
2021/09/25 05:48:33;;;;;;;5.22;2.30;;;;;;;25.67;36.09;95426.53;5077158;28;20489;-75
2021/09/25 05:50:59;;;;;;;3.70;2.30;;;;;;;25.70;36.35;95437.19;4993643;28;20686;-76
2021/09/25 05:53:24;;;;;;;5.10;2.35;;;;;;;25.75;36.12;95443.84;5084071;28;20013;-77
2021/09/25 05:55:50;;;;;;;3.92;2.40;;;;;;;25.79;35.83;95448.50;5080417;28;20486;-74
2021/09/25 05:58:15;;;;;;;4.63;3.00;;;;;;;25.88;35.98;95448.16;5048245;28;20277;-76
2021/09/25 06:00:41;;;;;;;3.78;2.33;;;;;;;25.86;35.49;95455.41;5049098;28;20110;-75
2021/09/25 06:03:06;;;;;;;4.50;2.88;;;;;;;25.95;35.78;95480.41;5048554;28;20028;-74
2021/09/25 06:05:32;;;;;;;5.55;2.83;;;;;;;25.99;35.64;95475.41;5094381;28;20102;-74
2021/09/25 06:07:57;;;;;;;4.70;2.38;;;;;;;26.03;35.73;95470.38;5065271;28;20028;-74
2021/09/25 06:10:23;;;;;;;3.53;2.40;;;;;;;26.11;35.42;95465.78;5066055;28;20406;-78
2021/09/25 06:12:48;;;;;;;4.55;2.58;;;;;;;26.16;35.14;95464.22;5055937;28;20043;-77
2021/09/25 06:15:14;;;;;;;4.07;2.50;;;;;;;26.18;34.84;95470.69;5053193;28;20016;-78
2021/09/25 06:17:39;;;;;;;5.15;2.58;;;;;;;26.15;34.78;95471.72;5066273;28;20032;-78
2021/09/25 06:20:05;;;;;;;4.15;2.53;;;;;;;26.21;35.24;95469.66;5083503;28;20762;-78
2021/09/25 06:22:30;;;;;;;3.42;2.58;;;;;;;26.23;35.09;95461.66;5048916;28;20442;-78
2021/09/25 06:24:56;;;;;;;6.35;2.40;;;;;;;26.23;34.97;95469.88;5048247;28;20029;-77
2021/09/25 06:27:21;;;;;;;5.43;2.80;;;;;;;26.25;35.16;95475.59;5063073;28;20044;-74
2021/09/25 06:29:47;;;;;;;4.93;2.35;;;;;;;26.33;34.74;95476.50;5048111;28;20025;-77
2021/09/25 06:32:12;;;;;;;4.55;2.65;;;;;;;26.41;34.67;95482.84;5048214;28;20032;-77
2021/09/25 06:34:37;;;;;;;4.05;2.30;;;;;;;26.45;34.49;95481.31;5046282;28;20017;-76
2021/09/25 06:37:03;;;;;;;5.45;2.47;;;;;;;26.43;34.44;95474.88;5048959;28;20044;-76
2021/09/25 06:39:29;;;;;;;4.10;2.60;;;;;;;26.48;34.42;95476.78;5069318;28;20891;-77
2021/09/25 06:41:54;;;;;;;4.82;2.35;;;;;;;26.50;34.33;95477.78;5048310;28;20021;-76
2021/09/25 06:44:20;;;;;;;5.07;2.70;;;;;;;26.51;34.39;95481.97;5047871;28;20045;-75
2021/09/25 06:46:46;;;;;;;3.83;2.38;;;;;;;26.54;34.12;95496.63;5080114;28;20036;-77
2021/09/25 06:49:11;;;;;;;4.10;2.55;;;;;;;26.56;34.39;95472.19;5079497;28;20392;-76
2021/09/25 06:51:37;;;;;;;4.10;2.58;;;;;;;26.58;33.97;95486.13;5047948;28;20036;-78
2021/09/25 06:54:02;;;;;;;4.18;2.25;;;;;;;26.56;34.20;95477.69;5049206;28;20025;-78
2021/09/25 06:56:28;;;;;;;4.25;2.80;;;;;;;26.66;34.19;95481.53;5063032;28;20025;-78
2021/09/25 06:58:53;;;;;;;3.80;2.53;;;;;;;26.62;34.22;95481.84;5059162;28;20020;-77
2021/09/25 07:01:19;;;;;;;7.70;2.40;;;;;;;26.63;34.44;95466.13;5052886;28;20044;-78
2021/09/25 07:03:44;;;;;;;3.85;2.47;;;;;;;26.62;34.42;95470.88;5054132;28;20480;-78
2021/09/25 07:06:10;;;;;;;4.95;2.53;;;;;;;26.63;34.41;95466.13;5047964;28;20106;-78
2021/09/25 07:08:35;;;;;;;3.80;2.70;;;;;;;26.62;34.28;95465.41;5048572;28;20029;-78
2021/09/25 07:11:01;;;;;;;4.50;2.70;;;;;;;26.66;34.06;95470.56;5054108;28;20051;-77
2021/09/25 07:13:26;;;;;;;3.47;2.45;;;;;;;26.67;34.15;95472.06;5057858;28;20506;-78
2021/09/25 07:15:51;;;;;;;5.53;2.80;;;;;;;26.68;34.23;95468.03;5053884;28;20017;-77
2021/09/25 07:18:17;;;;;;;4.85;2.47;;;;;;;26.74;34.26;95466.72;5061144;28;20025;-78
2021/09/25 07:20:43;;;;;;;8.30;2.95;;;;;;;26.75;34.27;95478.41;5053419;28;20032;-80
2021/09/25 07:23:09;;;;;;;134.80;93.60;;;;;;;26.88;36.88;95466.25;5062899;28;20052;-73
2021/09/25 07:25:36;;;;;;;1220.45;902.38;;;;;;;27.03;33.95;95477.50;5065941;28;20037;-72
2021/09/25 07:28:02;;;;;;;995.95;703.90;;;;;;;26.98;33.78;95475.59;5065421;28;20048;-73
2021/09/25 07:30:27;;;;;;;627.88;408.98;;;;;;;26.93;33.88;95473.66;5063357;28;20074;-72
2021/09/25 07:32:53;;;;;;;450.75;248.90;;;;;;;26.89;33.85;95470.50;5052406;28;20020;-73
2021/09/25 07:35:18;;;;;;;1229.80;985.60;;;;;;;26.90;33.85;95474.69;5047507;28;20017;-74
2021/09/25 07:37:43;;;;;;;623.10;435.02;;;;;;;26.90;33.85;95474.69;5074975;28;20025;-77
2021/09/25 07:40:09;;;;;;;325.50;172.05;;;;;;;26.87;34.33;95474.97;5083709;28;20025;-73
2021/09/25 07:42:35;;;;;;;214.43;118.35;;;;;;;26.80;33.99;95465.38;5063768;28;20397;-72
2021/09/25 07:45:00;;;;;;;16.95;13.43;;;;;;;26.91;33.92;95473.44;5069062;28;20047;-72
2021/09/25 07:47:26;;;;;;;45.50;30.95;;;;;;;26.79;34.10;95452.91;5052971;28;20029;-73
2021/09/25 07:49:52;;;;;;;4.22;2.90;;;;;;;26.93;34.09;95472.94;5080963;28;20075;-72
2021/09/25 07:52:17;;;;;;;4.78;2.80;;;;;;;26.96;34.59;95467.13;5070905;28;20028;-72
2021/09/25 07:54:43;;;;;;;5.15;2.70;;;;;;;26.93;34.64;95479.13;5064800;28;20036;-72
2021/09/25 07:57:08;;;;;;;4.78;2.90;;;;;;;27.00;34.10;95478.53;5057113;28;20043;-71
2021/09/25 07:59:34;;;;;;;5.28;2.67;;;;;;;26.95;34.32;95476.63;5055486;28;20058;-70
2021/09/25 08:04:37;;;;;;;5.82;3.58;;;;;;;26.92;34.40;95472.19;5100204;27;20128;-72
2021/09/25 08:07:03;;;;;;;5.13;3.20;;;;;;;27.05;34.12;95474.97;5089517;28;20082;-74
2021/09/25 08:09:28;;;;;;;6.93;3.50;;;;;;;26.96;34.15;95478.09;5090760;28;20384;-73
2021/09/25 08:11:54;;;;;;;5.60;2.97;;;;;;;27.03;34.65;95472.00;5082017;28;20027;-72
2021/09/25 08:14:19;;;;;;;4.88;3.10;;;;;;;27.01;34.32;95471.81;5088740;28;20024;-71
2021/09/25 08:16:45;;;;;;;5.85;2.67;;;;;;;26.98;34.22;95470.13;5085823;28;20121;-72
2021/09/25 08:19:10;;;;;;;5.35;3.25;;;;;;;26.88;34.38;95471.72;5083698;28;20484;-74
2021/09/25 08:21:36;;;;;;;5.85;2.80;;;;;;;26.97;33.96;95467.88;5084210;28;20483;-72
2021/09/25 08:24:01;;;;;;;4.07;2.55;;;;;;;26.86;34.55;95460.53;5065750;28;20028;-74
2021/09/25 08:26:27;;;;;;;4.10;2.53;;;;;;;26.89;34.32;95473.25;5064780;28;20024;-74
2021/09/25 08:28:52;;;;;;;6.15;3.22;;;;;;;26.97;34.46;95479.59;5076860;28;20430;-73
2021/09/25 08:31:18;;;;;;;5.40;3.17;;;;;;;27.01;34.31;95474.56;5101670;28;20402;-73
2021/09/25 08:33:43;;;;;;;6.07;3.55;;;;;;;26.94;34.24;95469.66;5103663;28;20020;-72
2021/09/25 08:36:08;;;;;;;6.38;2.80;;;;;;;26.93;34.24;95468.19;5084373;28;20051;-72
2021/09/25 08:38:34;;;;;;;4.78;3.30;;;;;;;26.84;34.52;95470.53;5102932;28;20574;-72
2021/09/25 08:40:59;;;;;;;6.38;5.25;;;;;;;26.83;34.50;95456.09;5102985;28;20118;-74
2021/09/25 08:43:26;;;;;;;5.40;3.78;;;;;;;26.95;34.41;95465.66;5079572;28;20388;-73
2021/09/25 08:46:03;;;;;;;3.92;2.67;;;;;;;26.90;34.38;95463.72;5064238;28;20411;-74
2021/09/25 08:48:29;;;;;;;6.30;3.10;;;;;;;26.95;33.88;95465.66;5091838;28;20035;-74
2021/09/25 08:50:55;;;;;;;4.28;3.30;;;;;;;26.94;34.21;95472.41;5064427;28;20653;-74
2021/09/25 08:53:20;;;;;;;9.18;7.68;;;;;;;26.91;34.42;95443.28;5082617;28;20016;-73
2021/09/25 08:55:46;;;;;;;3.40;2.67;;;;;;;27.00;33.74;95467.56;5063561;28;20456;-74
2021/09/25 08:58:11;;;;;;;4.97;2.67;;;;;;;26.93;34.00;95468.19;5083428;28;20035;-74
2021/09/25 09:00:38;;;;;;;3.80;2.55;;;;;;;27.05;34.26;95485.94;5081604;28;20628;-73
2021/09/25 09:03:25;;;;;;;9.02;7.35;;;;;;;27.01;34.16;95480.03;5081341;28;20044;-75
2021/09/25 09:05:55;;;;;;;10.10;9.18;;;;;;;26.96;34.19;95461.66;5096146;28;20043;-75
2021/09/25 09:08:22;;;;;;;6.20;3.30;;;;;;;26.99;33.96;95433.19;5081386;28;20070;-72
2021/09/25 09:10:47;;;;;;;5.10;4.60;;;;;;;27.06;33.68;95465.50;5097822;28;20036;-73
2021/09/25 09:13:14;;;;;;;7.88;5.60;;;;;;;27.03;34.09;95455.56;5089915;28;20043;-71
2021/09/25 09:15:39;;;;;;;6.38;5.00;;;;;;;27.07;33.82;95460.72;5070537;28;20024;-72
2021/09/25 09:18:15;;;;;;;7.65;5.35;;;;;;;27.09;34.24;95464.44;5084153;28;20478;-72
2021/09/25 09:20:40;;;;;;;4.85;2.90;;;;;;;27.26;33.54;95462.16;5086737;28;20032;-74
2021/09/25 09:23:16;;;;;;;7.50;4.28;;;;;;;27.50;33.42;95449.06;5050137;28;20602;-75
2021/09/25 09:25:42;;;;;;;3.30;2.10;;;;;;;27.54;33.52;95454.22;5047386;28;20050;-74
2021/09/25 09:28:27;;;;;;;4.10;1.90;;;;;;;27.93;32.79;95439.25;5081940;28;20414;-74
2021/09/25 09:30:53;;;;;;;4.45;2.55;;;;;;;27.77;32.94;95440.31;5084112;28;20020;-73
2021/09/25 09:33:38;;;;;;;4.45;2.38;;;;;;;27.77;32.85;95448.56;5085042;28;20023;-75
2021/09/25 09:36:20;;;;;;;3.97;2.30;;;;;;;27.76;32.79;95454.56;5070474;28;20032;-72
2021/09/25 09:38:52;;;;;;;5.95;2.40;;;;;;;27.74;32.83;95452.34;5068258;28;20035;-71
2021/09/25 09:41:38;;;;;;;2.88;2.17;;;;;;;27.74;33.03;95446.88;5067737;28;20107;-76
2021/09/25 09:44:08;;;;;;;4.65;2.03;;;;;;;27.78;32.96;95446.53;5093281;28;20114;-76
2021/09/25 09:46:42;;;;;;;3.58;2.30;;;;;;;27.79;32.70;95442.53;5060101;28;20172;-74
2021/09/25 09:49:09;;;;;;;5.95;2.10;;;;;;;27.75;33.03;95453.09;5091527;28;20021;-74
2021/09/25 09:51:40;;;;;;;5.97;2.03;;;;;;;27.80;33.11;95454.97;5064802;28;20565;-74
2021/09/25 09:54:14;;;;;;;4.07;2.30;;;;;;;27.84;32.79;95450.66;5075627;28;20134;-74
2021/09/25 09:56:41;;;;;;;4.22;2.45;;;;;;;27.88;32.78;95448.34;5080614;28;20033;-74
2021/09/25 09:59:07;;;;;;;4.13;2.08;;;;;;;27.87;32.88;95454.34;5063093;28;20150;-74
2021/09/25 10:01:33;;;;;;;3.58;2.03;;;;;;;28.00;32.63;95457.84;5072779;28;20133;-73
2021/09/25 10:03:59;;;;;;;3.47;2.20;;;;;;;27.97;32.40;95458.88;5067291;28;20048;-72
2021/09/25 10:06:24;;;;;;;6.07;2.33;;;;;;;28.02;32.69;95438.81;5067366;28;20020;-72
2021/09/25 10:08:49;;;;;;;4.35;2.30;;;;;;;27.99;32.74;95456.34;5066682;28;20433;-73
2021/09/25 10:11:15;;;;;;;4.35;2.05;;;;;;;28.06;32.61;95433.75;5067616;28;20026;-73
2021/09/25 10:13:41;;;;;;;4.03;2.40;;;;;;;28.02;32.84;95444.31;5043236;28;20409;-72
2021/09/25 10:16:08;;;;;;;3.92;2.10;;;;;;;28.26;32.01;95452.31;5067263;28;20062;-71
2021/09/25 10:18:34;;;;;;;6.95;2.78;;;;;;;28.44;31.23;95451.44;5072171;28;20036;-72
2021/09/25 10:21:00;;;;;;;6.30;3.55;;;;;;;28.44;31.09;95434.97;5082444;28;20021;-71
2021/09/25 10:23:25;;;;;;;4.40;2.42;;;;;;;28.54;31.56;95441.50;5049335;28;20059;-72
2021/09/25 10:25:50;;;;;;;6.07;2.92;;;;;;;28.33;31.58;95424.22;5047883;28;20027;-74
2021/09/25 10:28:23;;;;;;;5.13;2.63;;;;;;;28.34;31.45;95420.94;5048380;28;20410;-73
2021/09/25 10:30:50;;;;;;;4.15;2.25;;;;;;;28.29;31.49;95432.03;5048847;28;20032;-72
2021/09/25 10:33:15;;;;;;;3.97;2.30;;;;;;;28.22;31.92;95424.47;5066801;28;20016;-72
2021/09/25 10:35:41;;;;;;;4.63;2.45;;;;;;;28.37;31.91;95424.63;5066947;28;20051;-71
2021/09/25 10:38:06;;;;;;;5.82;2.90;;;;;;;28.34;31.74;95431.94;5066557;28;20710;-72
2021/09/25 10:40:33;;;;;;;6.72;2.80;;;;;;;28.45;31.32;95436.44;5066487;28;20491;-74
2021/09/25 10:43:17;;;;;;;13.35;4.95;;;;;;;28.58;31.36;95433.66;5063809;28;20028;-72
2021/09/25 10:45:43;;;;;;;5.57;3.42;;;;;;;28.72;30.66;95422.09;5066735;28;20119;-72
2021/09/25 10:48:24;;;;;;;8.05;4.20;;;;;;;28.73;31.50;95424.31;5065145;28;20044;-73
2021/09/25 10:50:54;;;;;;;6.38;3.72;;;;;;;29.01;30.53;95410.63;5066317;28;20499;-71
2021/09/25 10:53:22;;;;;;;6.28;3.15;;;;;;;29.09;30.48;95400.47;5066502;28;20043;-72
2021/09/25 10:55:49;;;;;;;5.40;2.97;;;;;;;29.18;30.51;95424.75;5049741;28;20028;-74
2021/09/25 10:58:19;;;;;;;5.03;3.10;;;;;;;28.97;31.09;95415.00;5067750;28;20067;-76
2021/09/25 11:00:47;;;;;;;;;;;;;;;28.85;30.93;95414.53;5057682;28;20024;-76
2021/09/25 11:03:46;;;;;;;4.40;2.75;;;;;;;28.46;31.23;95411.19;5066618;28;19935;-75
2021/09/25 11:06:30;;;;;;;6.22;2.67;;;;;;;28.39;31.89;95405.59;5061927;28;20517;-76
2021/09/25 11:09:02;;;;;;;6.10;2.70;;;;;;;28.39;32.17;95405.59;5063520;28;20506;-76
2021/09/25 11:11:31;;;;;;;4.20;3.10;;;;;;;28.50;32.12;95406.06;5066000;28;20103;-73
2021/09/25 11:14:00;;;;;;;4.60;2.78;;;;;;;28.42;31.69;95399.03;5068190;28;20033;-76
2021/09/25 11:16:44;;;;;;;4.45;2.80;;;;;;;28.38;32.12;95404.13;5082871;28;20042;-75
2021/09/25 11:19:30;;;;;;;5.45;3.15;;;;;;;28.45;32.24;95398.72;5093238;28;20665;-75
2021/09/25 11:22:08;;;;;;;5.70;2.78;;;;;;;28.41;32.16;95397.56;5054530;28;20025;-74
2021/09/25 11:24:36;;;;;;;4.43;2.75;;;;;;;28.35;32.07;95399.69;5068596;28;20032;-74
2021/09/25 11:27:02;;;;;;;5.95;2.47;;;;;;;28.40;32.61;95396.81;5041547;28;20525;-74
2021/09/25 11:29:28;;;;;;;4.45;2.55;;;;;;;28.38;31.79;95393.13;5061152;28;20119;-72
2021/09/25 11:32:07;;;;;;;3.60;2.50;;;;;;;28.52;31.88;95397.31;5082828;28;20111;-73